sensor_id;sensor_type;location;lat;lon;timestamp;pressure;altitude;pressure_sealevel;temperature
32039;BMP280;18549;42.286;22.688;2023-07-30T00:01:00;95416.97;;;26.45
32039;BMP280;18549;42.286;22.688;2023-07-30T00:03:27;95418.94;;;26.43
32039;BMP280;18549;42.286;22.688;2023-07-30T00:05:54;95417.38;;;26.42
32039;BMP280;18549;42.286;22.688;2023-07-30T00:08:21;95411.69;;;26.40
32039;BMP280;18549;42.286;22.688;2023-07-30T00:10:49;95412.69;;;26.39
32039;BMP280;18549;42.286;22.688;2023-07-30T00:13:16;95412.09;;;26.37
32039;BMP280;18549;42.286;22.688;2023-07-30T00:15:43;95414.06;;;26.35
32039;BMP280;18549;42.286;22.688;2023-07-30T00:18:11;95409.94;;;26.34
32039;BMP280;18549;42.286;22.688;2023-07-30T00:20:38;95409.94;;;26.34
32039;BMP280;18549;42.286;22.688;2023-07-30T00:23:05;95409.38;;;26.32
32039;BMP280;18549;42.286;22.688;2023-07-30T00:25:31;95415.41;;;26.31
32039;BMP280;18549;42.286;22.688;2023-07-30T00:28:00;95404.66;;;26.29
32039;BMP280;18549;42.286;22.688;2023-07-30T00:30:26;95414.25;;;26.27
32039;BMP280;18549;42.286;22.688;2023-07-30T00:32:53;95410.16;;;26.26
32039;BMP280;18549;42.286;22.688;2023-07-30T00:35:20;95408.59;;;26.25
32039;BMP280;18549;42.286;22.688;2023-07-30T00:37:47;95401.94;;;26.24
32039;BMP280;18549;42.286;22.688;2023-07-30T00:40:14;95408.38;;;26.20
32039;BMP280;18549;42.286;22.688;2023-07-30T00:42:40;95411.31;;;26.23
32039;BMP280;18549;42.286;22.688;2023-07-30T00:45:10;95405.28;;;26.18
32039;BMP280;18549;42.286;22.688;2023-07-30T00:47:37;95417.38;;;26.16
32039;BMP280;18549;42.286;22.688;2023-07-30T00:50:05;95415.19;;;26.13
32039;BMP280;18549;42.286;22.688;2023-07-30T00:52:33;95415.41;;;26.12
32039;BMP280;18549;42.286;22.688;2023-07-30T00:55:01;95414.22;;;26.08
32039;BMP280;18549;42.286;22.688;2023-07-30T00:57:29;95417.94;;;26.05
32039;BMP280;18549;42.286;22.688;2023-07-30T00:59:57;95412.44;;;26.02
32039;BMP280;18549;42.286;22.688;2023-07-30T01:02:25;95411.47;;;25.96
32039;BMP280;18549;42.286;22.688;2023-07-30T01:04:53;95416.94;;;25.93
32039;BMP280;18549;42.286;22.688;2023-07-30T01:07:20;95415.75;;;25.89
32039;BMP280;18549;42.286;22.688;2023-07-30T01:09:47;95422.78;;;25.87
32039;BMP280;18549;42.286;22.688;2023-07-30T01:12:14;95409.50;;;25.85
32039;BMP280;18549;42.286;22.688;2023-07-30T01:14:41;95416.72;;;25.82
32039;BMP280;18549;42.286;22.688;2023-07-30T01:17:08;95414.19;;;25.82
32039;BMP280;18549;42.286;22.688;2023-07-30T01:19:37;95420.22;;;25.81
32039;BMP280;18549;42.286;22.688;2023-07-30T01:22:05;95420.81;;;25.77
32039;BMP280;18549;42.286;22.688;2023-07-30T01:24:32;95424.34;;;25.76
32039;BMP280;18549;42.286;22.688;2023-07-30T01:27:01;95424.72;;;25.73
32039;BMP280;18549;42.286;22.688;2023-07-30T01:29:40;95419.06;;;25.71
32039;BMP280;18549;42.286;22.688;2023-07-30T01:32:11;95421.75;;;25.63
32039;BMP280;18549;42.286;22.688;2023-07-30T01:34:41;95420.97;;;25.62
32039;BMP280;18549;42.286;22.688;2023-07-30T01:37:12;95429.59;;;25.61
32039;BMP280;18549;42.286;22.688;2023-07-30T01:39:40;95424.50;;;25.61
32039;BMP280;18549;42.286;22.688;2023-07-30T01:42:07;95428.22;;;25.59
32039;BMP280;18549;42.286;22.688;2023-07-30T01:44:34;95423.31;;;25.57
32039;BMP280;18549;42.286;22.688;2023-07-30T01:47:01;95425.03;;;25.51
32039;BMP280;18549;42.286;22.688;2023-07-30T01:49:28;95429.28;;;25.44
32039;BMP280;18549;42.286;22.688;2023-07-30T01:51:55;95433.94;;;25.40
32039;BMP280;18549;42.286;22.688;2023-07-30T01:54:23;95429.88;;;25.39
32039;BMP280;18549;42.286;22.688;2023-07-30T01:56:49;95421.47;;;25.39
32039;BMP280;18549;42.286;22.688;2023-07-30T01:59:16;95426.34;;;25.40
32039;BMP280;18549;42.286;22.688;2023-07-30T02:01:43;95436.50;;;25.40
32039;BMP280;18549;42.286;22.688;2023-07-30T02:04:10;95424.59;;;25.41
32039;BMP280;18549;42.286;22.688;2023-07-30T02:06:36;95439.03;;;25.40
32039;BMP280;18549;42.286;22.688;2023-07-30T02:09:03;95432.78;;;25.36
32039;BMP280;18549;42.286;22.688;2023-07-30T02:11:31;95431.22;;;25.35
32039;BMP280;18549;42.286;22.688;2023-07-30T02:13:58;95435.13;;;25.31
32039;BMP280;18549;42.286;22.688;2023-07-30T02:16:25;95439.00;;;25.27
32039;BMP280;18549;42.286;22.688;2023-07-30T02:18:51;95432.16;;;25.28
32039;BMP280;18549;42.286;22.688;2023-07-30T02:21:18;95431.56;;;25.26
32039;BMP280;18549;42.286;22.688;2023-07-30T02:23:45;95435.06;;;25.18
32039;BMP280;18549;42.286;22.688;2023-07-30T02:26:11;95443.81;;;25.16
32039;BMP280;18549;42.286;22.688;2023-07-30T02:28:39;95435.03;;;25.12
32039;BMP280;18549;42.286;22.688;2023-07-30T02:31:06;95441.84;;;25.12
32039;BMP280;18549;42.286;22.688;2023-07-30T02:33:33;95451.22;;;25.11
32039;BMP280;18549;42.286;22.688;2023-07-30T02:35:59;95439.69;;;25.09
32039;BMP280;18549;42.286;22.688;2023-07-30T02:38:26;95434.97;;;25.06
32039;BMP280;18549;42.286;22.688;2023-07-30T02:40:53;95438.31;;;25.06
32039;BMP280;18549;42.286;22.688;2023-07-30T02:43:19;95442.03;;;25.04
32039;BMP280;18549;42.286;22.688;2023-07-30T02:45:48;95442.37;;;25.01
32039;BMP280;18549;42.286;22.688;2023-07-30T02:48:15;95441.00;;;24.98
32039;BMP280;18549;42.286;22.688;2023-07-30T02:50:42;95445.06;;;24.93
32039;BMP280;18549;42.286;22.688;2023-07-30T02:53:09;95444.31;;;24.92
32039;BMP280;18549;42.286;22.688;2023-07-30T02:55:35;95451.91;;;24.92
32039;BMP280;18549;42.286;22.688;2023-07-30T02:58:02;95452.09;;;24.91
32039;BMP280;18549;42.286;22.688;2023-07-30T03:00:29;95448.94;;;24.89
32039;BMP280;18549;42.286;22.688;2023-07-30T03:02:57;95455.31;;;24.85
32039;BMP280;18549;42.286;22.688;2023-07-30T03:05:24;95465.22;;;24.80
32039;BMP280;18549;42.286;22.688;2023-07-30T03:07:50;95466.81;;;24.81
32039;BMP280;18549;42.286;22.688;2023-07-30T03:10:17;95466.81;;;24.81
32039;BMP280;18549;42.286;22.688;2023-07-30T03:12:44;95464.03;;;24.76
32039;BMP280;18549;42.286;22.688;2023-07-30T03:15:11;95464.41;;;24.73
32039;BMP280;18549;42.286;22.688;2023-07-30T03:17:37;95468.09;;;24.71
32039;BMP280;18549;42.286;22.688;2023-07-30T03:20:07;95470.47;;;24.72
32039;BMP280;18549;42.286;22.688;2023-07-30T03:22:34;95471.00;;;24.68
32039;BMP280;18549;42.286;22.688;2023-07-30T03:25:01;95470.41;;;24.66
32039;BMP280;18549;42.286;22.688;2023-07-30T03:27:28;95471.75;;;24.62
32039;BMP280;18549;42.286;22.688;2023-07-30T03:29:54;95467.44;;;24.62
32039;BMP280;18549;42.286;22.688;2023-07-30T03:32:21;95469.41;;;24.60
32039;BMP280;18549;42.286;22.688;2023-07-30T03:34:48;95468.19;;;24.56
32039;BMP280;18549;42.286;22.688;2023-07-30T03:37:16;95471.69;;;24.55
32039;BMP280;18549;42.286;22.688;2023-07-30T03:39:42;95476.75;;;24.55
32039;BMP280;18549;42.286;22.688;2023-07-30T03:42:09;95470.75;;;24.56
32039;BMP280;18549;42.286;22.688;2023-07-30T03:44:36;95471.69;;;24.55
32039;BMP280;18549;42.286;22.688;2023-07-30T03:47:03;95477.56;;;24.56
32039;BMP280;18549;42.286;22.688;2023-07-30T03:49:30;95476.75;;;24.55
32039;BMP280;18549;42.286;22.688;2023-07-30T03:51:57;95482.97;;;24.53
32039;BMP280;18549;42.286;22.688;2023-07-30T03:54:25;95487.25;;;24.52
32039;BMP280;18549;42.286;22.688;2023-07-30T03:56:51;95485.72;;;24.52
32039;BMP280;18549;42.286;22.688;2023-07-30T03:59:18;95483.34;;;24.50
32039;BMP280;18549;42.286;22.688;2023-07-30T04:01:45;95487.59;;;24.43
32039;BMP280;18549;42.286;22.688;2023-07-30T04:04:12;95497.25;;;24.33
32039;BMP280;18549;42.286;22.688;2023-07-30T04:06:38;95495.25;;;24.29
32039;BMP280;18549;42.286;22.688;2023-07-30T04:09:05;95494.47;;;24.28
32039;BMP280;18549;42.286;22.688;2023-07-30T04:11:34;95499.97;;;24.32
32039;BMP280;18549;42.286;22.688;2023-07-30T04:14:00;95493.38;;;24.37
32039;BMP280;18549;42.286;22.688;2023-07-30T04:16:27;95495.34;;;24.42
32039;BMP280;18549;42.286;22.688;2023-07-30T04:18:54;95491.63;;;24.38
32039;BMP280;18549;42.286;22.688;2023-07-30T04:21:20;95497.19;;;24.27
32039;BMP280;18549;42.286;22.688;2023-07-30T04:23:47;95488.22;;;24.24
32039;BMP280;18549;42.286;22.688;2023-07-30T04:26:14;95499.13;;;24.25
32039;BMP280;18549;42.286;22.688;2023-07-30T04:28:42;95488.63;;;24.28
32039;BMP280;18549;42.286;22.688;2023-07-30T04:31:08;95498.75;;;24.28
32039;BMP280;18549;42.286;22.688;2023-07-30T04:33:35;95496.66;;;24.31
32039;BMP280;18549;42.286;22.688;2023-07-30T04:36:02;95501.16;;;24.36
32039;BMP280;18549;42.286;22.688;2023-07-30T04:38:29;95499.81;;;24.40
32039;BMP280;18549;42.286;22.688;2023-07-30T04:40:57;95505.47;;;24.35
32039;BMP280;18549;42.286;22.688;2023-07-30T04:43:24;95506.22;;;24.36
32039;BMP280;18549;42.286;22.688;2023-07-30T04:45:52;95499.25;;;24.38
32039;BMP280;18549;42.286;22.688;2023-07-30T04:48:19;95496.87;;;24.36
32039;BMP280;18549;42.286;22.688;2023-07-30T04:50:45;95498.63;;;24.36
32039;BMP280;18549;42.286;22.688;2023-07-30T04:53:12;95503.16;;;24.40
32039;BMP280;18549;42.286;22.688;2023-07-30T04:55:39;95492.66;;;24.43
32039;BMP280;18549;42.286;22.688;2023-07-30T04:58:05;95501.63;;;24.46
32039;BMP280;18549;42.286;22.688;2023-07-30T05:00:32;95494.03;;;24.46
32039;BMP280;18549;42.286;22.688;2023-07-30T05:03:00;95488.97;;;24.46
32039;BMP280;18549;42.286;22.688;2023-07-30T05:05:27;95493.03;;;24.40
32039;BMP280;18549;42.286;22.688;2023-07-30T05:07:54;95486.75;;;24.36
32039;BMP280;18549;42.286;22.688;2023-07-30T05:10:20;95489.44;;;24.35
32039;BMP280;18549;42.286;22.688;2023-07-30T05:12:47;95488.97;;;24.25
32039;BMP280;18549;42.286;22.688;2023-07-30T05:15:14;95494.81;;;24.25
32039;BMP280;18549;42.286;22.688;2023-07-30T05:17:40;95483.75;;;24.26
32039;BMP280;18549;42.286;22.688;2023-07-30T05:20:10;95494.28;;;24.30
32039;BMP280;18549;42.286;22.688;2023-07-30T05:22:36;95486.31;;;24.33
32039;BMP280;18549;42.286;22.688;2023-07-30T05:25:04;95490.59;;;24.32
32039;BMP280;18549;42.286;22.688;2023-07-30T05:27:31;95488.84;;;24.33
32039;BMP280;18549;42.286;22.688;2023-07-30T05:29:57;95495.87;;;24.31
32039;BMP280;18549;42.286;22.688;2023-07-30T05:32:25;95495.13;;;24.37
32039;BMP280;18549;42.286;22.688;2023-07-30T05:34:52;95498.88;;;24.41
32039;BMP280;18549;42.286;22.688;2023-07-30T05:37:20;95495.59;;;24.47
32039;BMP280;18549;42.286;22.688;2023-07-30T05:39:48;95495.25;;;24.50
32039;BMP280;18549;42.286;22.688;2023-07-30T05:42:15;95497.84;;;24.56
32039;BMP280;18549;42.286;22.688;2023-07-30T05:44:41;95499.00;;;24.60
32039;BMP280;18549;42.286;22.688;2023-07-30T05:47:08;95499.44;;;24.63
32039;BMP280;18549;42.286;22.688;2023-07-30T05:49:35;95502.53;;;24.59
32039;BMP280;18549;42.286;22.688;2023-07-30T05:52:02;95495.84;;;24.52
32039;BMP280;18549;42.286;22.688;2023-07-30T05:54:30;95500.09;;;24.51
32039;BMP280;18549;42.286;22.688;2023-07-30T05:56:57;95500.16;;;24.57
32039;BMP280;18549;42.286;22.688;2023-07-30T05:59:23;95495.69;;;24.59
32039;BMP280;18549;42.286;22.688;2023-07-30T06:01:50;95497.28;;;24.60
32039;BMP280;18549;42.286;22.688;2023-07-30T06:04:17;95495.94;;;24.64
32039;BMP280;18549;42.286;22.688;2023-07-30T06:06:44;95495.75;;;24.66
32039;BMP280;18549;42.286;22.688;2023-07-30T06:09:11;95491.25;;;24.61
32039;BMP280;18549;42.286;22.688;2023-07-30T06:11:39;95491.25;;;24.61
32039;BMP280;18549;42.286;22.688;2023-07-30T06:14:05;95488.41;;;24.50
32039;BMP280;18549;42.286;22.688;2023-07-30T06:16:32;95486.53;;;24.58
32039;BMP280;18549;42.286;22.688;2023-07-30T06:18:59;95487.72;;;24.62
32039;BMP280;18549;42.286;22.688;2023-07-30T06:21:26;95483.56;;;24.55
32039;BMP280;18549;42.286;22.688;2023-07-30T06:23:52;95483.81;;;24.60
32039;BMP280;18549;42.286;22.688;2023-07-30T06:26:19;95482.66;;;24.62
32039;BMP280;18549;42.286;22.688;2023-07-30T06:28:47;95478.25;;;24.71
32039;BMP280;18549;42.286;22.688;2023-07-30T06:31:14;95480.22;;;24.75
32039;BMP280;18549;42.286;22.688;2023-07-30T06:33:41;95477.75;;;24.82
32039;BMP280;18549;42.286;22.688;2023-07-30T06:36:07;95479.38;;;24.89
32039;BMP280;18549;42.286;22.688;2023-07-30T06:38:34;95475.13;;;24.96
32039;BMP280;18549;42.286;22.688;2023-07-30T06:41:01;95476.31;;;25.00
32039;BMP280;18549;42.286;22.688;2023-07-30T06:43:28;95478.44;;;24.96
32039;BMP280;18549;42.286;22.688;2023-07-30T06:45:56;95473.19;;;24.98
32039;BMP280;18549;42.286;22.688;2023-07-30T06:48:23;95472.75;;;24.94
32039;BMP280;18549;42.286;22.688;2023-07-30T06:50:50;95474.28;;;24.89
32039;BMP280;18549;42.286;22.688;2023-07-30T06:53:16;95464.97;;;24.96
32039;BMP280;18549;42.286;22.688;2023-07-30T06:55:43;95458.78;;;25.05
32039;BMP280;18549;42.286;22.688;2023-07-30T06:58:10;95457.44;;;25.09
32039;BMP280;18549;42.286;22.688;2023-07-30T07:00:37;95458.63;;;25.13
32039;BMP280;18549;42.286;22.688;2023-07-30T07:03:05;95459.81;;;25.17
32039;BMP280;18549;42.286;22.688;2023-07-30T07:05:33;95453.44;;;25.27
32039;BMP280;18549;42.286;22.688;2023-07-30T07:08:00;95451.13;;;25.32
32039;BMP280;18549;42.286;22.688;2023-07-30T07:10:27;95454.62;;;25.37
32039;BMP280;18549;42.286;22.688;2023-07-30T07:12:54;95444.91;;;25.41
32039;BMP280;18549;42.286;22.688;2023-07-30T07:15:20;95445.50;;;25.43
32039;BMP280;18549;42.286;22.688;2023-07-30T07:17:47;95440.06;;;25.52
32039;BMP280;18549;42.286;22.688;2023-07-30T07:20:15;95436.59;;;25.59
32039;BMP280;18549;42.286;22.688;2023-07-30T07:22:42;95433.88;;;25.67
32039;BMP280;18549;42.286;22.688;2023-07-30T07:25:08;95422.75;;;25.68
32039;BMP280;18549;42.286;22.688;2023-07-30T07:27:35;95427.25;;;25.73
32039;BMP280;18549;42.286;22.688;2023-07-30T07:30:02;95422.78;;;25.75
32039;BMP280;18549;42.286;22.688;2023-07-30T07:32:29;95423.38;;;25.83
32039;BMP280;18549;42.286;22.688;2023-07-30T07:34:56;95420.66;;;25.85
32039;BMP280;18549;42.286;22.688;2023-07-30T07:37:24;95424.94;;;25.90
32039;BMP280;18549;42.286;22.688;2023-07-30T07:39:51;95413.81;;;25.91
32039;BMP280;18549;42.286;22.688;2023-07-30T07:42:17;95419.50;;;26.00
32039;BMP280;18549;42.286;22.688;2023-07-30T07:44:44;95416.56;;;26.09
32039;BMP280;18549;42.286;22.688;2023-07-30T07:47:11;95413.44;;;26.14
32039;BMP280;18549;42.286;22.688;2023-07-30T07:49:38;95412.50;;;26.21
32039;BMP280;18549;42.286;22.688;2023-07-30T07:52:05;95407.78;;;26.24
32039;BMP280;18549;42.286;22.688;2023-07-30T07:54:33;95404.47;;;26.30
32039;BMP280;18549;42.286;22.688;2023-07-30T07:57:00;95402.91;;;26.42
32039;BMP280;18549;42.286;22.688;2023-07-30T07:59:27;95402.12;;;26.54
32039;BMP280;18549;42.286;22.688;2023-07-30T08:01:53;95395.44;;;26.66
32039;BMP280;18549;42.286;22.688;2023-07-30T08:04:20;95393.09;;;26.71
32039;BMP280;18549;42.286;22.688;2023-07-30T08:06:47;95388.78;;;26.85
32039;BMP280;18549;42.286;22.688;2023-07-30T08:09:14;95395.22;;;26.93
32039;BMP280;18549;42.286;22.688;2023-07-30T08:11:43;95387.16;;;27.03
32039;BMP280;18549;42.286;22.688;2023-07-30T08:14:10;95391.59;;;27.14
32039;BMP280;18549;42.286;22.688;2023-07-30T08:16:36;95386.88;;;27.23
32039;BMP280;18549;42.286;22.688;2023-07-30T08:19:03;95384.66;;;27.33
32039;BMP280;18549;42.286;22.688;2023-07-30T08:21:30;95383.31;;;27.37
32039;BMP280;18549;42.286;22.688;2023-07-30T08:23:56;95378.81;;;27.39
32039;BMP280;18549;42.286;22.688;2023-07-30T08:26:23;95377.22;;;27.45
32039;BMP280;18549;42.286;22.688;2023-07-30T08:28:51;95377.19;;;27.51
32039;BMP280;18549;42.286;22.688;2023-07-30T08:31:18;95368.31;;;27.60
32039;BMP280;18549;42.286;22.688;2023-07-30T08:33:45;95368.63;;;27.70
32039;BMP280;18549;42.286;22.688;2023-07-30T08:36:11;95362.88;;;27.81
32039;BMP280;18549;42.286;22.688;2023-07-30T08:38:38;95356.56;;;27.89
32039;BMP280;18549;42.286;22.688;2023-07-30T08:41:05;95358.44;;;28.00
32039;BMP280;18549;42.286;22.688;2023-07-30T08:43:32;95352.69;;;28.11
32039;BMP280;18549;42.286;22.688;2023-07-30T08:46:01;95358.28;;;28.20
32039;BMP280;18549;42.286;22.688;2023-07-30T08:48:27;95358.25;;;28.26
32039;BMP280;18549;42.286;22.688;2023-07-30T08:50:57;95352.88;;;28.34
32039;BMP280;18549;42.286;22.688;2023-07-30T08:53:24;95336.31;;;28.43
32039;BMP280;18549;42.286;22.688;2023-07-30T08:55:53;95345.25;;;28.52
32039;BMP280;18549;42.286;22.688;2023-07-30T08:58:21;95343.87;;;28.55
32039;BMP280;18549;42.286;22.688;2023-07-30T09:00:49;95342.44;;;28.59
32039;BMP280;18549;42.286;22.688;2023-07-30T09:03:18;95345.13;;;28.64
32039;BMP280;18549;42.286;22.688;2023-07-30T09:05:45;95336.06;;;28.68
32039;BMP280;18549;42.286;22.688;2023-07-30T09:08:12;95334.88;;;28.71
32039;BMP280;18549;42.286;22.688;2023-07-30T09:10:39;95335.00;;;28.76
32039;BMP280;18549;42.286;22.688;2023-07-30T09:13:05;95336.50;;;28.83
32039;BMP280;18549;42.286;22.688;2023-07-30T09:15:34;95327.56;;;28.92
32039;BMP280;18549;42.286;22.688;2023-07-30T09:18:03;95325.28;;;29.02
32039;BMP280;18549;42.286;22.688;2023-07-30T09:20:41;95330.50;;;29.07
32039;BMP280;18549;42.286;22.688;2023-07-30T09:23:09;95329.25;;;29.16
32039;BMP280;18549;42.286;22.688;2023-07-30T09:25:37;95321.03;;;29.14
32039;BMP280;18549;42.286;22.688;2023-07-30T09:28:05;95316.19;;;29.23
32039;BMP280;18549;42.286;22.688;2023-07-30T09:30:32;95317.81;;;29.36
32039;BMP280;18549;42.286;22.688;2023-07-30T09:32:59;95316.59;;;29.38
32039;BMP280;18549;42.286;22.688;2023-07-30T09:35:26;95309.72;;;29.50
32039;BMP280;18549;42.286;22.688;2023-07-30T09:38:00;95307.22;;;29.61
32039;BMP280;18549;42.286;22.688;2023-07-30T09:40:31;95306.69;;;29.71
32039;BMP280;18549;42.286;22.688;2023-07-30T09:42:58;95303.38;;;29.82
32039;BMP280;18549;42.286;22.688;2023-07-30T09:45:25;95297.94;;;29.89
32039;BMP280;18549;42.286;22.688;2023-07-30T09:47:54;95297.06;;;29.95
32039;BMP280;18549;42.286;22.688;2023-07-30T09:50:22;95282.63;;;30.01
32039;BMP280;18549;42.286;22.688;2023-07-30T09:52:49;95280.97;;;30.06
32039;BMP280;18549;42.286;22.688;2023-07-30T09:55:17;95272.41;;;30.12
32039;BMP280;18549;42.286;22.688;2023-07-30T09:57:45;95272.50;;;30.17
32039;BMP280;18549;42.286;22.688;2023-07-30T10:00:12;95266.88;;;30.26
32039;BMP280;18549;42.286;22.688;2023-07-30T10:02:41;95264.84;;;30.28
32039;BMP280;18549;42.286;22.688;2023-07-30T10:05:11;95258.41;;;30.37
32039;BMP280;18549;42.286;22.688;2023-07-30T10:07:42;95249.50;;;30.40
32039;BMP280;18549;42.286;22.688;2023-07-30T10:10:10;95239.25;;;30.51
32039;BMP280;18549;42.286;22.688;2023-07-30T10:12:39;95244.56;;;30.61
32039;BMP280;18549;42.286;22.688;2023-07-30T10:15:08;95226.00;;;30.65
32039;BMP280;18549;42.286;22.688;2023-07-30T10:17:35;95238.78;;;30.65
32039;BMP280;18549;42.286;22.688;2023-07-30T10:20:22;95230.09;;;30.66
32039;BMP280;18549;42.286;22.688;2023-07-30T10:22:51;95222.41;;;30.66
32039;BMP280;18549;42.286;22.688;2023-07-30T10:25:21;95227.53;;;30.66
32039;BMP280;18549;42.286;22.688;2023-07-30T10:27:51;95224.41;;;30.64
32039;BMP280;18549;42.286;22.688;2023-07-30T10:30:19;95218.31;;;30.77
32039;BMP280;18549;42.286;22.688;2023-07-30T10:33:02;95218.47;;;30.87
32039;BMP280;18549;42.286;22.688;2023-07-30T10:35:39;95218.50;;;31.03
32039;BMP280;18549;42.286;22.688;2023-07-30T10:38:17;95200.47;;;31.09
32039;BMP280;18549;42.286;22.688;2023-07-30T10:41:02;95191.53;;;31.12
32039;BMP280;18549;42.286;22.688;2023-07-30T10:43:31;95199.63;;;31.20
32039;BMP280;18549;42.286;22.688;2023-07-30T10:46:00;95193.75;;;31.36
32039;BMP280;18549;42.286;22.688;2023-07-30T10:48:30;95184.72;;;31.50
32039;BMP280;18549;42.286;22.688;2023-07-30T10:50:59;95188.16;;;31.55
32039;BMP280;18549;42.286;22.688;2023-07-30T10:53:25;95186.44;;;31.60
32039;BMP280;18549;42.286;22.688;2023-07-30T10:55:52;95176.03;;;31.67
32039;BMP280;18549;42.286;22.688;2023-07-30T10:58:20;95174.66;;;31.59
32039;BMP280;18549;42.286;22.688;2023-07-30T11:00:50;95170.31;;;31.60
32039;BMP280;18549;42.286;22.688;2023-07-30T11:03:16;95174.50;;;31.66
32039;BMP280;18549;42.286;22.688;2023-07-30T11:05:46;95159.41;;;31.69
32039;BMP280;18549;42.286;22.688;2023-07-30T11:08:13;95164.78;;;31.68
32039;BMP280;18549;42.286;22.688;2023-07-30T11:10:43;95158.31;;;31.82
32039;BMP280;18549;42.286;22.688;2023-07-30T11:13:12;95162.03;;;31.90
32039;BMP280;18549;42.286;22.688;2023-07-30T11:15:42;95148.66;;;32.05
32039;BMP280;18549;42.286;22.688;2023-07-30T11:18:12;95153.41;;;31.96
32039;BMP280;18549;42.286;22.688;2023-07-30T11:20:39;95137.91;;;31.87
32039;BMP280;18549;42.286;22.688;2023-07-30T11:23:21;95140.06;;;31.94
32039;BMP280;18549;42.286;22.688;2023-07-30T11:25:49;95139.00;;;32.12
32039;BMP280;18549;42.286;22.688;2023-07-30T11:28:27;95143.47;;;32.21
32039;BMP280;18549;42.286;22.688;2023-07-30T11:30:56;95139.78;;;32.12
32039;BMP280;18549;42.286;22.688;2023-07-30T11:33:25;95129.31;;;31.97
32039;BMP280;18549;42.286;22.688;2023-07-30T11:35:52;95119.44;;;31.85
32039;BMP280;18549;42.286;22.688;2023-07-30T11:38:20;95126.94;;;31.75
32039;BMP280;18549;42.286;22.688;2023-07-30T11:40:47;95116.81;;;31.80
32039;BMP280;18549;42.286;22.688;2023-07-30T11:43:14;95118.34;;;31.81
32039;BMP280;18549;42.286;22.688;2023-07-30T11:45:41;95108.16;;;31.86
32039;BMP280;18549;42.286;22.688;2023-07-30T11:48:09;95098.16;;;32.05
32039;BMP280;18549;42.286;22.688;2023-07-30T11:50:45;95103.56;;;32.09
32039;BMP280;18549;42.286;22.688;2023-07-30T11:53:13;95102.31;;;32.11
32039;BMP280;18549;42.286;22.688;2023-07-30T11:55:40;95097.72;;;32.13
32039;BMP280;18549;42.286;22.688;2023-07-30T11:58:08;95085.66;;;32.30
32039;BMP280;18549;42.286;22.688;2023-07-30T12:00:36;95087.78;;;32.38
32039;BMP280;18549;42.286;22.688;2023-07-30T12:03:04;95084.44;;;32.37
32039;BMP280;18549;42.286;22.688;2023-07-30T12:05:32;95073.78;;;32.50
32039;BMP280;18549;42.286;22.688;2023-07-30T12:08:01;95071.91;;;32.67
32039;BMP280;18549;42.286;22.688;2023-07-30T12:10:41;95063.06;;;32.84
32039;BMP280;18549;42.286;22.688;2023-07-30T12:13:13;95066.47;;;32.90
32039;BMP280;18549;42.286;22.688;2023-07-30T12:15:43;95061.97;;;33.06
32039;BMP280;18549;42.286;22.688;2023-07-30T12:18:10;95062.31;;;33.20
32039;BMP280;18549;42.286;22.688;2023-07-30T12:20:37;95061.94;;;33.32
32039;BMP280;18549;42.286;22.688;2023-07-30T12:23:05;95051.94;;;33.41
32039;BMP280;18549;42.286;22.688;2023-07-30T12:25:31;95047.66;;;33.51
32039;BMP280;18549;42.286;22.688;2023-07-30T12:27:58;95046.91;;;33.60
32039;BMP280;18549;42.286;22.688;2023-07-30T12:30:25;95044.56;;;33.49
32039;BMP280;18549;42.286;22.688;2023-07-30T12:32:53;95048.59;;;33.40
32039;BMP280;18549;42.286;22.688;2023-07-30T12:35:20;95041.78;;;33.20
32039;BMP280;18549;42.286;22.688;2023-07-30T12:37:46;95046.84;;;33.10
32039;BMP280;18549;42.286;22.688;2023-07-30T12:40:15;95038.06;;;33.01
32039;BMP280;18549;42.286;22.688;2023-07-30T12:42:42;95033.50;;;33.13
32039;BMP280;18549;42.286;22.688;2023-07-30T12:45:09;95028.28;;;33.34
32039;BMP280;18549;42.286;22.688;2023-07-30T12:47:36;95028.09;;;33.50
32039;BMP280;18549;42.286;22.688;2023-07-30T12:50:04;95024.56;;;33.66
32039;BMP280;18549;42.286;22.688;2023-07-30T12:52:32;95022.59;;;33.78
32039;BMP280;18549;42.286;22.688;2023-07-30T12:54:58;95023.41;;;33.88
32039;BMP280;18549;42.286;22.688;2023-07-30T12:57:27;95023.44;;;34.03
32039;BMP280;18549;42.286;22.688;2023-07-30T12:59:54;95013.44;;;34.11
32039;BMP280;18549;42.286;22.688;2023-07-30T13:02:21;95015.25;;;34.21
32039;BMP280;18549;42.286;22.688;2023-07-30T13:04:48;95013.69;;;34.10
32039;BMP280;18549;42.286;22.688;2023-07-30T13:07:14;95014.94;;;33.92
32039;BMP280;18549;42.286;22.688;2023-07-30T13:09:41;95006.69;;;33.86
32039;BMP280;18549;42.286;22.688;2023-07-30T13:12:08;95001.56;;;33.86
32039;BMP280;18549;42.286;22.688;2023-07-30T13:14:36;94999.91;;;33.65
32039;BMP280;18549;42.286;22.688;2023-07-30T13:17:03;94993.41;;;33.48
32039;BMP280;18549;42.286;22.688;2023-07-30T13:19:30;94991.03;;;33.36
32039;BMP280;18549;42.286;22.688;2023-07-30T13:21:57;94990.69;;;33.23
32039;BMP280;18549;42.286;22.688;2023-07-30T13:24:24;94992.13;;;33.04
32039;BMP280;18549;42.286;22.688;2023-07-30T13:26:51;94988.44;;;33.31
32039;BMP280;18549;42.286;22.688;2023-07-30T13:29:17;94979.81;;;33.52
32039;BMP280;18549;42.286;22.688;2023-07-30T13:31:46;94980.94;;;33.76
32039;BMP280;18549;42.286;22.688;2023-07-30T13:34:12;94974.25;;;33.75
32039;BMP280;18549;42.286;22.688;2023-07-30T13:36:39;94976.38;;;33.92
32039;BMP280;18549;42.286;22.688;2023-07-30T13:39:06;94978.47;;;34.10
32039;BMP280;18549;42.286;22.688;2023-07-30T13:41:33;94974.66;;;34.27
32039;BMP280;18549;42.286;22.688;2023-07-30T13:43:59;94984.97;;;34.47
32039;BMP280;18549;42.286;22.688;2023-07-30T13:46:26;94975.44;;;34.58
32039;BMP280;18549;42.286;22.688;2023-07-30T13:48:54;94963.09;;;34.69
32039;BMP280;18549;42.286;22.688;2023-07-30T13:51:21;94962.84;;;34.76
32039;BMP280;18549;42.286;22.688;2023-07-30T13:53:47;94959.75;;;34.84
32039;BMP280;18549;42.286;22.688;2023-07-30T13:56:14;94965.41;;;34.76
32039;BMP280;18549;42.286;22.688;2023-07-30T13:58:41;94955.13;;;34.81